Time;durP1;ratioP1;P1;durP2;ratioP2;P2;SDS_P1;SDS_P2;PMS_P1;PMS_P2;Temp;Humidity;BMP_temperature;BMP_pressure;BME280_temperature;BME280_humidity;BME280_pressure;Samples;Min_cycle;Max_cycle;Signal;HPM_P1;HPM_P2
2022/08/06 00:01:43;;;;;;;2.55;1.35;;;11.90;99.90;;;;;;5032987;28;20128;-71
2022/08/06 00:04:08;;;;;;;3.35;1.35;;;11.90;99.90;;;;;;5031575;28;20144;-71
2022/08/06 00:06:34;;;;;;;6.88;1.45;;;11.90;99.90;;;;;;5017552;28;20091;-70
2022/08/06 00:09:00;;;;;;;2.10;1.27;;;11.90;99.90;;;;;;5030358;28;20060;-70
2022/08/06 00:11:25;;;;;;;8.73;1.33;;;11.90;99.90;;;;;;5045666;28;20295;-71
2022/08/06 00:13:51;;;;;;;6.30;1.40;;;12.00;99.90;;;;;;5033640;28;20046;-71
2022/08/06 00:16:17;;;;;;;6.35;1.40;;;11.90;99.90;;;;;;5042441;28;20128;-72
2022/08/06 00:18:42;;;;;;;4.30;1.65;;;12.00;99.90;;;;;;5028570;28;20042;-72
2022/08/06 00:21:08;;;;;;;1.83;1.20;;;11.90;99.90;;;;;;5031377;28;20049;-71
2022/08/06 00:23:34;;;;;;;4.93;1.15;;;11.90;99.90;;;;;;5033611;28;20393;-70
2022/08/06 00:25:59;;;;;;;3.60;1.30;;;11.90;99.90;;;;;;5032919;28;20045;-71
2022/08/06 00:28:25;;;;;;;2.83;1.00;;;11.90;99.90;;;;;;5014338;28;20075;-73
2022/08/06 00:30:51;;;;;;;3.92;1.13;;;12.00;99.90;;;;;;5042722;28;20052;-72
2022/08/06 00:33:17;;;;;;;4.63;0.73;;;11.90;99.90;;;;;;5051269;28;20264;-72
2022/08/06 00:35:44;;;;;;;5.03;1.08;;;12.00;99.90;;;;;;5052036;28;20072;-71
2022/08/06 00:38:10;;;;;;;2.40;1.10;;;12.00;99.90;;;;;;5030723;28;20084;-71
2022/08/06 00:40:36;;;;;;;3.92;1.30;;;12.00;99.90;;;;;;5045220;28;20156;-71
2022/08/06 00:43:04;;;;;;;2.55;1.10;;;12.00;99.90;;;;;;5044772;28;20053;-72
2022/08/06 00:45:34;;;;;;;3.97;1.55;;;12.00;99.90;;;;;;5041682;28;20067;-71
2022/08/06 00:48:00;;;;;;;2.00;1.17;;;12.10;99.90;;;;;;5016686;28;20055;-71
2022/08/06 00:50:26;;;;;;;4.10;1.35;;;11.90;99.90;;;;;;5042742;28;20090;-72
2022/08/06 00:52:52;;;;;;;1.98;1.00;;;12.00;99.90;;;;;;5047069;28;20465;-72
2022/08/06 00:55:19;;;;;;;3.75;1.27;;;12.00;99.90;;;;;;5051940;28;20037;-71
2022/08/06 00:57:45;;;;;;;2.10;0.95;;;12.00;99.90;;;;;;5033906;28;20040;-71
2022/08/06 01:00:12;;;;;;;1.73;0.77;;;12.00;99.90;;;;;;5051611;28;20040;-71
2022/08/06 01:02:38;;;;;;;2.58;1.13;;;12.00;99.90;;;;;;5031103;28;20054;-71
2022/08/06 01:05:04;;;;;;;4.32;1.20;;;12.00;99.90;;;;;;5031849;28;20046;-71
2022/08/06 01:07:30;;;;;;;4.07;1.13;;;11.90;99.90;;;;;;5020471;28;20076;-72
2022/08/06 01:09:56;;;;;;;3.42;1.15;;;12.00;99.90;;;;;;5050341;28;20519;-71
2022/08/06 01:12:21;;;;;;;1.83;0.90;;;12.00;99.90;;;;;;5041507;28;20049;-72
2022/08/06 01:14:47;;;;;;;3.75;1.10;;;11.90;99.90;;;;;;5039865;28;20040;-71
2022/08/06 01:17:31;;;;;;;1.95;1.15;;;11.90;99.90;;;;;;5031197;28;20049;-72
2022/08/06 01:20:23;;;;;;;4.60;1.25;;;11.80;99.90;;;;;;5032876;28;20041;-71
2022/08/06 01:23:07;;;;;;;4.13;1.30;;;11.80;99.90;;;;;;5047614;28;20045;-72
2022/08/06 01:26:17;;;;;;;4.82;1.00;;;11.80;99.90;;;;;;5065240;28;20133;-72
2022/08/06 01:28:48;;;;;;;2.72;1.10;;;11.70;99.90;;;;;;5043950;28;20132;-73
2022/08/06 01:31:19;;;;;;;3.60;1.42;;;11.70;99.90;;;;;;5051275;28;20037;-71
2022/08/06 01:33:52;;;;;;;3.13;1.67;;;11.60;99.90;;;;;;5049953;28;20543;-71
2022/08/06 01:36:23;;;;;;;3.05;1.15;;;11.60;99.90;;;;;;5036833;28;20045;-73
2022/08/06 01:38:52;;;;;;;2.75;1.20;;;11.60;99.90;;;;;;5026207;28;20041;-71
2022/08/06 01:41:41;;;;;;;3.05;1.35;;;11.60;99.90;;;;;;5029210;28;20056;-71
2022/08/06 01:44:11;;;;;;;4.22;1.63;;;11.50;99.90;;;;;;5043614;28;20045;-72
2022/08/06 01:46:40;;;;;;;1.85;1.48;;;11.50;99.90;;;;;;5036762;28;20652;-72
2022/08/06 01:49:08;;;;;;;2.97;1.40;;;11.40;99.90;;;;;;5034870;28;20049;-72
2022/08/06 01:51:34;;;;;;;5.47;1.52;;;11.40;99.90;;;;;;5038042;28;20037;-72
2022/08/06 01:54:03;;;;;;;1.20;1.08;;;11.30;99.90;;;;;;5054173;28;20132;-72
2022/08/06 01:56:32;;;;;;;2.28;1.45;;;11.40;99.90;;;;;;5025910;28;20474;-72
2022/08/06 01:58:58;;;;;;;3.90;1.70;;;11.30;99.90;;;;;;5047745;28;20527;-72
2022/08/06 02:01:26;;;;;;;4.20;1.60;;;11.30;99.90;;;;;;5050478;28;20045;-71
2022/08/06 02:03:54;;;;;;;2.40;1.30;;;11.20;99.90;;;;;;5034103;28;20045;-71
2022/08/06 02:06:24;;;;;;;3.63;1.60;;;11.10;99.90;;;;;;5019443;28;20042;-72
2022/08/06 02:08:52;;;;;;;3.55;1.55;;;11.10;99.90;;;;;;5025023;28;20041;-72
2022/08/06 02:11:18;;;;;;;3.03;1.65;;;11.10;99.90;;;;;;5037987;28;20044;-72
2022/08/06 02:13:46;;;;;;;3.42;1.63;;;11.00;99.90;;;;;;5033162;28;20042;-71
2022/08/06 02:16:13;;;;;;;3.08;1.58;;;11.00;99.90;;;;;;5043092;28;20041;-73
2022/08/06 02:18:41;;;;;;;2.88;1.48;;;10.90;99.90;;;;;;5026201;28;20107;-72
2022/08/06 02:21:12;;;;;;;3.97;1.65;;;10.90;99.90;;;;;;5030237;28;20045;-73
2022/08/06 02:23:39;;;;;;;4.82;1.75;;;10.90;99.90;;;;;;5030609;28;20049;-71
2022/08/06 02:26:05;;;;;;;4.03;1.65;;;10.90;99.90;;;;;;5036232;28;20512;-71
2022/08/06 02:28:33;;;;;;;2.70;1.33;;;10.90;99.90;;;;;;5029634;28;20091;-71
2022/08/06 02:30:59;;;;;;;3.42;1.60;;;10.80;99.90;;;;;;5045964;28;20048;-71
2022/08/06 02:33:26;;;;;;;4.00;1.60;;;10.80;99.90;;;;;;5048679;28;20064;-71
2022/08/06 02:36:03;;;;;;;2.90;1.75;;;10.80;99.90;;;;;;5048928;28;20049;-71
2022/08/06 02:38:44;;;;;;;5.18;2.00;;;10.70;99.90;;;;;;5034433;28;20459;-70
2022/08/06 02:41:30;;;;;;;3.20;1.63;;;10.70;99.90;;;;;;5050020;28;20784;-71
2022/08/06 02:44:06;;;;;;;3.33;1.63;;;10.80;99.90;;;;;;5036090;28;20057;-71
2022/08/06 02:47:04;;;;;;;4.10;1.90;;;10.70;99.90;;;;;;5034821;28;20111;-72
2022/08/06 02:49:36;;;;;;;3.72;1.60;;;10.70;99.90;;;;;;5048731;28;20385;-70
2022/08/06 02:52:13;;;;;;;4.47;1.70;;;10.70;99.90;;;;;;5038806;28;20049;-71
2022/08/06 02:54:42;;;;;;;5.40;1.70;;;10.70;99.90;;;;;;5044380;28;20129;-71
2022/08/06 02:57:17;;;;;;;4.65;1.60;;;10.70;99.90;;;;;;5026759;28;20063;-70
2022/08/06 02:59:46;;;;;;;3.10;1.40;;;10.70;99.90;;;;;;5036446;28;20157;-71
2022/08/06 03:02:16;;;;;;;2.92;1.40;;;10.70;99.90;;;;;;5047391;28;20033;-70
2022/08/06 03:04:46;;;;;;;4.10;1.52;;;10.80;99.90;;;;;;5037674;28;20427;-71
2022/08/06 03:07:13;;;;;;;3.75;1.35;;;10.80;99.90;;;;;;5032099;28;20565;-70
2022/08/06 03:09:43;;;;;;;3.40;1.45;;;10.80;99.90;;;;;;5039681;28;20049;-71
2022/08/06 03:12:10;;;;;;;4.10;1.60;;;10.80;99.90;;;;;;5035089;28;20053;-71
2022/08/06 03:14:38;;;;;;;2.63;1.50;;;10.80;99.90;;;;;;5045126;28;20068;-71
2022/08/06 03:17:06;;;;;;;3.60;1.58;;;10.80;99.90;;;;;;5020925;28;20038;-71
2022/08/06 03:19:33;;;;;;;3.28;1.30;;;10.80;99.90;;;;;;5039512;28;20038;-70
2022/08/06 03:22:00;;;;;;;3.17;1.50;;;10.80;99.90;;;;;;5049991;28;20119;-71
2022/08/06 03:24:26;;;;;;;2.38;1.70;;;10.70;99.90;;;;;;5039255;28;20449;-71
2022/08/06 03:26:57;;;;;;;2.83;1.52;;;10.70;99.90;;;;;;5025525;28;20564;-71
2022/08/06 03:29:25;;;;;;;3.95;1.73;;;10.70;99.90;;;;;;5042852;28;20104;-71
2022/08/06 03:31:51;;;;;;;3.22;1.65;;;10.60;99.90;;;;;;5031758;28;20559;-71
2022/08/06 03:34:18;;;;;;;4.22;1.63;;;10.60;99.90;;;;;;5032130;28;20045;-71
2022/08/06 03:36:44;;;;;;;2.78;1.50;;;10.60;99.90;;;;;;5026599;28;20040;-73
2022/08/06 03:39:12;;;;;;;4.13;1.70;;;10.70;99.90;;;;;;5050366;28;20504;-71
2022/08/06 03:41:40;;;;;;;2.17;1.50;;;10.70;99.90;;;;;;5031657;28;20044;-71
2022/08/06 03:44:07;;;;;;;4.82;1.40;;;10.60;99.90;;;;;;5047316;28;20049;-71
2022/08/06 03:46:58;;;;;;;2.40;1.50;;;10.80;99.90;;;;;;5033540;28;20045;-72
2022/08/06 03:49:29;;;;;;;3.08;1.67;;;10.70;99.90;;;;;;5031717;28;20540;-71
2022/08/06 03:51:58;;;;;;;2.97;1.48;;;10.80;99.90;;;;;;5042499;28;20037;-70
2022/08/06 03:54:32;;;;;;;5.03;1.60;;;10.80;99.90;;;;;;5051846;28;20095;-71
2022/08/06 03:57:02;;;;;;;2.38;1.60;;;10.80;99.90;;;;;;5026347;28;20404;-71
2022/08/06 03:59:30;;;;;;;3.75;1.58;;;10.80;99.90;;;;;;5049274;28;20037;-71
2022/08/06 04:01:58;;;;;;;2.85;1.85;;;10.80;99.90;;;;;;5051851;28;20415;-72
2022/08/06 04:04:25;;;;;;;3.97;1.50;;;10.90;99.90;;;;;;5051243;28;20048;-71
2022/08/06 04:06:53;;;;;;;3.92;1.38;;;11.00;99.90;;;;;;5036822;28;20124;-71
2022/08/06 04:09:19;;;;;;;2.85;1.70;;;11.00;99.90;;;;;;5051411;28;20557;-72
2022/08/06 04:11:46;;;;;;;2.13;1.35;;;11.10;99.90;;;;;;5048838;28;20211;-72
2022/08/06 04:14:12;;;;;;;2.50;1.17;;;11.10;99.90;;;;;;5045120;28;20049;-72
2022/08/06 04:16:39;;;;;;;2.00;1.30;;;11.20;99.90;;;;;;5029559;28;20041;-71
2022/08/06 04:19:07;;;;;;;4.55;1.60;;;11.20;99.90;;;;;;5028823;28;20049;-72
2022/08/06 04:21:34;;;;;;;1.77;1.50;;;11.30;99.90;;;;;;5032346;28;20060;-72
2022/08/06 04:23:59;;;;;;;3.30;1.60;;;11.20;99.90;;;;;;5042902;28;20053;-71
2022/08/06 04:26:28;;;;;;;4.05;1.67;;;11.20;99.90;;;;;;5019423;28;20535;-71
2022/08/06 04:28:55;;;;;;;4.65;1.60;;;11.20;99.90;;;;;;5026978;28;20163;-71
2022/08/06 04:31:23;;;;;;;5.35;2.10;;;11.10;99.90;;;;;;5046748;28;20045;-72
2022/08/06 04:33:51;;;;;;;3.80;1.65;;;11.10;99.90;;;;;;5046080;28;20045;-71
2022/08/06 04:36:19;;;;;;;7.72;1.90;;;11.10;99.90;;;;;;5036692;28;20050;-73
2022/08/06 04:38:45;;;;;;;3.70;1.75;;;11.10;99.90;;;;;;5025328;28;20037;-71
2022/08/06 04:41:12;;;;;;;4.00;1.98;;;11.10;99.90;;;;;;5035688;28;20049;-71
2022/08/06 04:43:39;;;;;;;5.07;1.83;;;11.10;99.90;;;;;;5038809;28;20115;-72
2022/08/06 04:46:05;;;;;;;4.00;1.90;;;11.10;99.90;;;;;;5046557;28;20061;-71
2022/08/06 04:48:31;;;;;;;2.28;2.08;;;11.20;99.90;;;;;;5035870;28;20053;-71
2022/08/06 04:50:57;;;;;;;5.05;2.40;;;11.10;99.90;;;;;;5051719;28;20053;-72
2022/08/06 04:53:23;;;;;;;3.30;2.53;;;11.00;99.90;;;;;;5049640;28;20079;-72
2022/08/06 04:55:48;;;;;;;2.50;2.25;;;11.00;99.90;;;;;;5036491;28;20862;-71
2022/08/06 04:58:16;;;;;;;3.22;2.22;;;10.90;99.90;;;;;;5015557;28;20132;-71
2022/08/06 05:00:46;;;;;;;3.92;2.22;;;11.00;99.90;;;;;;5047314;28;20041;-71
2022/08/06 05:03:12;;;;;;;3.17;2.40;;;10.90;99.90;;;;;;5023444;28;20046;-71
2022/08/06 05:06:05;;;;;;;3.97;2.30;;;10.90;99.90;;;;;;5033440;28;20048;-70
2022/08/06 05:08:38;;;;;;;3.50;2.30;;;11.00;99.90;;;;;;5020279;28;20100;-71
2022/08/06 05:11:25;;;;;;;2.85;2.50;;;11.00;99.90;;;;;;5037691;28;20111;-71
2022/08/06 05:13:57;;;;;;;3.35;2.05;;;11.00;99.90;;;;;;5032654;28;20412;-71
2022/08/06 05:16:25;;;;;;;2.20;1.88;;;11.10;99.90;;;;;;5029436;28;20061;-71
2022/08/06 05:18:57;;;;;;;4.78;2.30;;;11.30;99.90;;;;;;5040718;28;20064;-72
2022/08/06 05:21:28;;;;;;;5.63;2.33;;;11.30;99.90;;;;;;5030871;28;20063;-71
2022/08/06 05:23:54;;;;;;;;;;;11.30;99.90;;;;;;5041969;28;20401;-71
2022/08/06 05:26:22;;;;;;;2.92;2.25;;;11.40;99.90;;;;;;5019901;28;20431;-72
2022/08/06 05:28:48;;;;;;;4.80;2.40;;;11.40;99.90;;;;;;5027333;28;20099;-71
2022/08/06 05:31:14;;;;;;;3.85;2.47;;;11.40;99.90;;;;;;5032597;28;20103;-71
2022/08/06 05:33:41;;;;;;;3.97;2.20;;;11.40;99.90;;;;;;5041895;28;20042;-71
2022/08/06 05:36:09;;;;;;;3.45;2.40;;;11.30;99.90;;;;;;5029341;28;20049;-72
2022/08/06 05:38:40;;;;;;;3.20;2.10;;;11.30;99.90;;;;;;5029910;28;20052;-71
2022/08/06 05:41:11;;;;;;;3.63;2.10;;;11.30;99.90;;;;;;5049427;28;20072;-71
2022/08/06 05:43:38;;;;;;;3.33;2.15;;;11.30;99.90;;;;;;5039581;28;20046;-71
2022/08/06 05:46:08;;;;;;;3.25;2.58;;;11.30;99.90;;;;;;5050245;28;20435;-71
2022/08/06 05:48:38;;;;;;;4.57;2.63;;;11.30;99.90;;;;;;5030801;28;20094;-71
2022/08/06 05:51:11;;;;;;;3.47;2.50;;;11.30;99.90;;;;;;5043009;28;20056;-72
2022/08/06 05:53:47;;;;;;;4.45;2.60;;;11.30;99.90;;;;;;5039020;28;20673;-72
2022/08/06 05:56:18;;;;;;;4.65;2.63;;;11.30;99.90;;;;;;5036615;28;20128;-72
2022/08/06 05:58:56;;;;;;;5.13;2.15;;;11.50;99.90;;;;;;5032437;28;20045;-72
2022/08/06 06:01:23;;;;;;;4.43;2.30;;;11.60;99.90;;;;;;5041309;28;20107;-72
2022/08/06 06:03:53;;;;;;;2.13;1.92;;;11.90;99.90;;;;;;5044179;28;20041;-72
2022/08/06 06:06:20;;;;;;;3.47;2.45;;;12.10;99.90;;;;;;5037287;28;20156;-73
2022/08/06 06:08:46;;;;;;;2.65;1.90;;;12.50;99.90;;;;;;5041204;28;20119;-73
2022/08/06 06:11:12;;;;;;;3.67;1.75;;;12.80;99.90;;;;;;5048114;28;20053;-73
2022/08/06 06:13:41;;;;;;;1.70;1.60;;;13.00;99.90;;;;;;5031890;28;20046;-72
2022/08/06 06:16:19;;;;;;;2.83;1.42;;;13.30;99.90;;;;;;5037726;28;20056;-76
2022/08/06 06:19:27;;;;;;;3.63;1.35;;;13.50;99.90;;;;;;5025063;28;20496;-73
2022/08/06 06:22:03;;;;;;;2.95;1.10;;;13.70;99.90;;;;;;5032518;28;20483;-72
2022/08/06 06:24:35;;;;;;;3.97;1.30;;;13.70;99.90;;;;;;5028727;28;20037;-73
2022/08/06 06:27:17;;;;;;;2.70;1.45;;;13.90;99.90;;;;;;5022214;28;20124;-72
2022/08/06 06:30:04;;;;;;;2.63;1.30;;;14.00;99.90;;;;;;5049085;28;20133;-74
2022/08/06 06:32:52;;;;;;;2.90;1.15;;;14.10;99.90;;;;;;5031113;28;20519;-74
2022/08/06 06:35:28;;;;;;;2.47;1.27;;;14.20;99.90;;;;;;5037337;28;20060;-72
2022/08/06 06:38:31;;;;;;;4.43;1.30;;;14.30;99.90;;;;;;5021207;28;20136;-74
2022/08/06 06:41:16;;;;;;;5.18;1.60;;;14.30;99.90;;;;;;5048387;28;20044;-75
2022/08/06 06:44:03;;;;;;;3.28;1.38;;;14.40;99.90;;;;;;5039761;28;20469;-74
2022/08/06 06:46:46;;;;;;;3.20;1.30;;;14.50;99.90;;;;;;5035868;28;20139;-77
2022/08/06 06:49:41;;;;;;;5.55;1.33;;;14.60;99.90;;;;;;5051661;28;20045;-74
2022/08/06 06:52:22;;;;;;;3.33;1.10;;;14.80;99.90;;;;;;5040259;28;20076;-74
2022/08/06 06:54:53;;;;;;;2.97;1.00;;;14.90;99.90;;;;;;5040789;28;20518;-75
2022/08/06 06:57:29;;;;;;;3.63;0.80;;;15.00;99.90;;;;;;5037812;28;20040;-74
2022/08/06 06:59:57;;;;;;;2.75;0.65;;;15.20;99.90;;;;;;5053820;28;20045;-75
2022/08/06 07:02:25;;;;;;;2.45;0.80;;;15.30;99.90;;;;;;5049019;28;20045;-74
2022/08/06 07:04:53;;;;;;;3.05;0.50;;;15.50;99.90;;;;;;5032466;28;20054;-74
2022/08/06 07:07:20;;;;;;;3.92;0.60;;;15.60;99.90;;;;;;5018005;28;20053;-75
2022/08/06 07:09:47;;;;;;;3.35;0.63;;;15.80;99.90;;;;;;5033349;28;20548;-79
2022/08/06 07:12:18;;;;;;;3.20;0.60;;;15.90;99.90;;;;;;5042981;28;20072;-74
2022/08/06 07:14:45;;;;;;;;;;;15.90;99.90;;;;;;5040326;28;20048;-74
2022/08/06 07:17:12;;;;;;;3.83;0.60;;;15.90;99.90;;;;;;5019119;28;20011;-73
2022/08/06 07:19:38;;;;;;;5.47;0.68;;;16.00;99.90;;;;;;5033695;28;20161;-74
2022/08/06 07:22:05;;;;;;;3.03;0.60;;;15.90;99.90;;;;;;5037440;28;20049;-77
2022/08/06 07:24:33;;;;;;;1.92;0.70;;;16.20;99.90;;;;;;5039604;28;20416;-74
2022/08/06 07:27:00;;;;;;;2.22;0.30;;;16.20;99.90;;;;;;5018252;28;20050;-74
2022/08/06 07:29:27;;;;;;;5.18;0.70;;;16.40;99.90;;;;;;5027685;28;20408;-74
2022/08/06 07:31:55;;;;;;;3.45;0.52;;;16.60;99.90;;;;;;5046151;28;20050;-73
2022/08/06 07:34:22;;;;;;;5.38;0.60;;;16.70;99.90;;;;;;5032517;28;20148;-79
2022/08/06 07:36:53;;;;;;;4.15;0.38;;;16.60;99.90;;;;;;5018048;28;20384;-74
2022/08/06 07:39:32;;;;;;;2.10;0.32;;;16.80;99.90;;;;;;5032016;28;20049;-79
2022/08/06 07:42:01;;;;;;;1.75;0.30;;;17.00;99.90;;;;;;5043374;28;20049;-74
2022/08/06 07:44:28;;;;;;;2.67;0.40;;;16.90;99.90;;;;;;5033749;28;20046;-73
2022/08/06 07:46:58;;;;;;;2.33;0.43;;;17.00;99.90;;;;;;5035807;28;20119;-73
2022/08/06 07:49:29;;;;;;;4.18;0.60;;;17.20;99.90;;;;;;5052252;28;20047;-76
2022/08/06 07:51:56;;;;;;;;;;;17.40;99.90;;;;;;5046715;28;20044;-73
2022/08/06 07:54:23;;;;;;;2.15;0.47;;;17.50;99.90;;;;;;5048652;28;19979;-75
2022/08/06 07:56:49;;;;;;;2.45;0.20;;;17.60;99.90;;;;;;5017570;28;20041;-73
2022/08/06 07:59:15;;;;;;;3.13;0.30;;;17.40;99.90;;;;;;5047040;28;20051;-74
2022/08/06 08:01:42;;;;;;;3.80;0.50;;;17.50;99.90;;;;;;5051274;28;20498;-76
2022/08/06 08:06:54;;;;;;;2.13;0.30;;;17.60;99.90;;;;;;5032410;28;20110;-72
2022/08/06 08:09:23;;;;;;;2.95;0.40;;;17.70;99.90;;;;;;5051465;28;20137;-75
2022/08/06 08:11:50;;;;;;;1.83;0.47;;;17.90;99.90;;;;;;5049531;28;20123;-74
2022/08/06 08:14:19;;;;;;;2.10;0.40;;;17.80;99.90;;;;;;5031747;28;20049;-74
2022/08/06 08:16:46;;;;;;;1.15;0.30;;;17.70;99.90;;;;;;5032548;28;20099;-73
2022/08/06 08:19:47;;;;;;;2.92;0.50;;;17.60;99.90;;;;;;5048324;28;20107;-75
2022/08/06 08:22:18;;;;;;;3.42;0.40;;;17.50;99.90;;;;;;5043855;28;20099;-74
2022/08/06 08:24:45;;;;;;;3.67;0.52;;;17.10;99.90;;;;;;5039219;28;20420;-72
2022/08/06 08:27:12;;;;;;;4.28;0.60;;;16.90;99.90;;;;;;5016128;28;20054;-74
2022/08/06 08:29:39;;;;;;;3.70;0.57;;;16.70;99.90;;;;;;5030736;28;20179;-72
2022/08/06 08:32:06;;;;;;;2.28;0.38;;;16.70;99.90;;;;;;5038939;28;20045;-67
2022/08/06 08:34:32;;;;;;;2.25;0.40;;;16.70;99.90;;;;;;5049343;28;20610;-74
2022/08/06 08:36:58;;;;;;;4.72;0.68;;;16.70;99.90;;;;;;5036798;28;20040;-72
2022/08/06 08:39:24;;;;;;;1.65;0.50;;;16.80;99.90;;;;;;5050816;28;20052;-76
2022/08/06 08:41:55;;;;;;;4.10;0.60;;;16.70;99.90;;;;;;5046675;28;20748;-72
2022/08/06 08:44:25;;;;;;;3.37;0.90;;;16.70;99.90;;;;;;5036817;28;20491;-72
2022/08/06 08:46:51;;;;;;;4.10;0.93;;;16.70;99.90;;;;;;5034957;28;20752;-73
2022/08/06 08:49:40;;;;;;;4.25;0.80;;;16.70;99.90;;;;;;5036559;28;20053;-72
2022/08/06 08:52:27;;;;;;;2.17;0.73;;;16.70;99.90;;;;;;5040084;28;20052;-73
2022/08/06 08:54:57;;;;;;;4.43;0.95;;;16.60;99.90;;;;;;5039699;28;20041;-72
2022/08/06 08:57:26;;;;;;;2.75;1.08;;;16.70;99.90;;;;;;5021973;28;20041;-73
2022/08/06 08:59:52;;;;;;;3.47;0.85;;;16.80;99.90;;;;;;5037009;28;20056;-73
2022/08/06 09:02:18;;;;;;;4.00;1.20;;;17.00;99.90;;;;;;5035726;28;20045;-74
2022/08/06 09:04:45;;;;;;;4.05;0.90;;;17.30;99.90;;;;;;5037483;28;20041;-77
2022/08/06 09:07:10;;;;;;;2.53;0.70;;;17.60;99.90;;;;;;5022405;28;20049;-74
2022/08/06 09:09:39;;;;;;;2.80;1.02;;;17.60;99.90;;;;;;5033698;28;20095;-74
2022/08/06 09:12:07;;;;;;;2.88;0.93;;;17.50;99.90;;;;;;5039581;28;20053;-68
2022/08/06 09:14:34;;;;;;;3.30;0.70;;;17.30;99.90;;;;;;5040769;28;20482;-76
2022/08/06 09:17:01;;;;;;;1.73;0.73;;;17.60;99.90;;;;;;5031511;28;20124;-72
2022/08/06 09:19:29;;;;;;;3.70;0.88;;;17.60;99.90;;;;;;5038207;28;20044;-75
2022/08/06 09:21:59;;;;;;;2.10;0.90;;;17.80;99.90;;;;;;5036830;28;20060;-78
2022/08/06 09:24:26;;;;;;;3.70;1.17;;;17.90;99.90;;;;;;5034862;28;20420;-72
2022/08/06 09:27:12;;;;;;;2.00;1.20;;;17.90;99.90;;;;;;5028885;28;20510;-72
2022/08/06 09:29:48;;;;;;;3.90;0.98;;;18.10;99.90;;;;;;5047517;28;20060;-74
2022/08/06 09:32:38;;;;;;;2.20;0.93;;;18.10;99.90;;;;;;5030467;28;20038;-75
2022/08/06 09:35:28;;;;;;;3.85;1.23;;;18.20;99.90;;;;;;5036247;28;20476;-73
2022/08/06 09:38:05;;;;;;;4.90;1.10;;;18.10;99.90;;;;;;5032731;28;20049;-74
2022/08/06 09:40:32;;;;;;;2.28;1.00;;;18.20;99.90;;;;;;5039186;28;20052;-73
2022/08/06 09:42:57;;;;;;;3.38;0.88;;;18.30;99.90;;;;;;5035719;28;20123;-74
2022/08/06 09:45:25;;;;;;;3.08;1.10;;;18.00;99.90;;;;;;5050573;28;20131;-73
2022/08/06 09:48:04;;;;;;;3.10;1.13;;;17.80;99.90;;;;;;5017922;28;20061;-72
2022/08/06 09:50:43;;;;;;;4.55;1.40;;;18.10;99.90;;;;;;5031102;28;20049;-72
2022/08/06 09:53:09;;;;;;;3.67;1.20;;;18.20;99.90;;;;;;5036723;28;20052;-75
2022/08/06 09:55:35;;;;;;;2.30;1.20;;;18.10;99.90;;;;;;5050835;28;20124;-74
2022/08/06 09:58:02;;;;;;;2.53;1.02;;;18.00;99.90;;;;;;5033992;28;20056;-72
2022/08/06 10:00:31;;;;;;;2.70;1.08;;;18.20;99.90;;;;;;5035843;28;20438;-75
2022/08/06 10:03:04;;;;;;;2.78;1.30;;;18.30;99.90;;;;;;5044297;28;20059;-73
2022/08/06 10:05:31;;;;;;;2.10;1.10;;;18.20;99.90;;;;;;5040097;28;20052;-75
2022/08/06 10:08:16;;;;;;;2.47;1.08;;;18.20;99.90;;;;;;5023331;28;20207;-73
2022/08/06 10:10:47;;;;;;;2.40;1.00;;;18.30;99.90;;;;;;5044948;28;20053;-72
2022/08/06 10:13:16;;;;;;;2.78;1.52;;;18.40;99.90;;;;;;5041049;28;20037;-72
2022/08/06 10:15:44;;;;;;;3.42;1.20;;;18.50;99.90;;;;;;5050305;28;20045;-72
2022/08/06 10:18:11;;;;;;;1.73;1.23;;;18.70;99.90;;;;;;5025883;28;20041;-76
2022/08/06 10:20:36;;;;;;;3.28;1.27;;;18.90;99.90;;;;;;5048659;28;20674;-74
2022/08/06 10:23:02;;;;;;;1.77;1.17;;;18.90;99.90;;;;;;5039836;28;20135;-73
2022/08/06 10:25:29;;;;;;;1.85;1.30;;;19.00;99.90;;;;;;5029433;28;20048;-71
2022/08/06 10:27:56;;;;;;;2.67;1.42;;;18.80;99.90;;;;;;5014253;28;20116;-71
2022/08/06 10:30:21;;;;;;;2.75;1.50;;;18.80;99.90;;;;;;5030498;28;20041;-73
2022/08/06 10:32:53;;;;;;;4.90;1.40;;;18.80;99.90;;;;;;5057786;28;20055;-73
2022/08/06 10:35:22;;;;;;;2.78;1.70;;;18.50;99.90;;;;;;5048886;28;20049;-71
2022/08/06 10:37:53;;;;;;;2.55;1.48;;;18.50;99.90;;;;;;5032549;28;20048;-72
2022/08/06 10:40:20;;;;;;;2.47;1.10;;;18.50;99.90;;;;;;5038814;28;20545;-74
2022/08/06 10:42:46;;;;;;;3.67;1.60;;;18.80;99.90;;;;;;5036979;28;20049;-73
2022/08/06 10:45:14;;;;;;;3.88;1.65;;;18.80;99.90;;;;;;5033813;28;20040;-73
2022/08/06 10:47:44;;;;;;;2.88;1.77;;;18.80;99.90;;;;;;5021679;28;20049;-72
2022/08/06 10:50:12;;;;;;;1.48;1.20;;;18.70;99.90;;;;;;5037336;28;20045;-72
2022/08/06 10:52:39;;;;;;;3.20;1.73;;;19.00;99.90;;;;;;5034239;28;20056;-72
2022/08/06 10:55:05;;;;;;;5.00;1.70;;;19.00;99.90;;;;;;5036266;28;20053;-75
2022/08/06 10:57:32;;;;;;;2.72;1.73;;;18.90;97.20;;;;;;5023311;28;20053;-75
2022/08/06 11:00:00;;;;;;;2.45;1.38;;;19.10;99.90;;;;;;5038281;28;20045;-71
2022/08/06 11:02:57;;;;;;;1.80;1.45;;;19.40;99.90;;;;;;5034592;28;20084;-76
2022/08/06 11:05:46;;;;;;;3.55;1.80;;;19.60;99.30;;;;;;5054047;28;20059;-71
2022/08/06 11:08:50;;;;;;;2.70;1.63;;;19.70;99.00;;;;;;5035568;28;20627;-73
2022/08/06 11:11:42;;;;;;;2.83;1.80;;;19.80;99.20;;;;;;5038339;28;20053;-72
2022/08/06 11:14:13;;;;;;;1.85;1.50;;;19.80;98.50;;;;;;5027155;28;20048;-77
2022/08/06 11:16:39;;;;;;;2.65;1.80;;;19.80;98.20;;;;;;5025575;28;20073;-72
2022/08/06 11:19:10;;;;;;;2.60;1.98;;;19.50;97.80;;;;;;5027460;28;20775;-76
2022/08/06 11:21:44;;;;;;;3.10;2.00;;;19.50;99.80;;;;;;5031522;28;20137;-73
2022/08/06 11:24:13;;;;;;;3.40;2.10;;;19.70;97.50;;;;;;5030544;28;20053;-76
2022/08/06 11:26:41;;;;;;;2.97;1.95;;;19.60;97.30;;;;;;5018829;28;20064;-72
2022/08/06 11:29:08;;;;;;;4.43;2.03;;;19.60;97.50;;;;;;5037096;28;20500;-74
2022/08/06 11:31:38;;;;;;;3.95;2.00;;;19.60;95.10;;;;;;5028350;28;20111;-72
2022/08/06 11:34:09;;;;;;;3.53;2.38;;;19.40;97.30;;;;;;5036539;28;20587;-71
2022/08/06 11:36:49;;;;;;;3.60;2.40;;;19.50;98.50;;;;;;5021397;28;20149;-74
2022/08/06 11:39:19;;;;;;;2.90;2.30;;;19.40;97.10;;;;;;5051948;28;20056;-72
2022/08/06 11:41:51;;;;;;;3.10;2.42;;;19.50;99.90;;;;;;5052864;28;20037;-74
2022/08/06 11:44:19;;;;;;;2.35;2.08;;;19.70;99.90;;;;;;5036173;28;20065;-72
2022/08/06 11:46:47;;;;;;;3.08;2.25;;;19.60;99.90;;;;;;5036893;28;20053;-79
2022/08/06 11:49:32;;;;;;;2.80;2.05;;;19.80;99.90;;;;;;5052045;28;20041;-73
2022/08/06 11:51:59;;;;;;;2.67;2.47;;;19.70;99.90;;;;;;5052966;28;20403;-73
2022/08/06 11:54:27;;;;;;;4.28;2.60;;;19.60;99.90;;;;;;5051911;28;20045;-73
2022/08/06 11:57:02;;;;;;;2.33;1.88;;;19.60;99.90;;;;;;5037287;28;20533;-75
2022/08/06 11:59:29;;;;;;;4.43;2.30;;;19.60;99.90;;;;;;5050205;28;20103;-72
2022/08/06 12:01:56;;;;;;;2.53;2.10;;;19.80;99.90;;;;;;5052817;28;20143;-78
2022/08/06 12:04:42;;;;;;;3.53;2.13;;;19.60;99.90;;;;;;5032190;28;20052;-73
2022/08/06 12:07:28;;;;;;;2.60;2.40;;;19.40;99.00;;;;;;5016465;28;20115;-75
2022/08/06 12:10:10;;;;;;;3.40;2.40;;;19.20;99.90;;;;;;5044544;28;20130;-71
2022/08/06 12:12:43;;;;;;;3.20;2.17;;;19.00;98.80;;;;;;5042718;28;20037;-74
2022/08/06 12:15:11;;;;;;;3.00;2.42;;;19.00;97.70;;;;;;5052383;28;20090;-70
2022/08/06 12:17:39;;;;;;;2.90;2.08;;;19.20;98.90;;;;;;5025911;28;20053;-70
2022/08/06 12:20:06;;;;;;;3.03;2.08;;;19.20;98.40;;;;;;5035102;28;20056;-73
2022/08/06 12:22:34;;;;;;;2.88;2.33;;;19.30;97.30;;;;;;5049613;28;20527;-72
2022/08/06 12:25:04;;;;;;;2.83;2.33;;;19.20;96.30;;;;;;5034739;28;20057;-76
2022/08/06 12:27:36;;;;;;;2.55;2.35;;;19.40;96.60;;;;;;5026378;28;20091;-70
2022/08/06 12:30:02;;;;;;;;;;;19.30;96.50;;;;;;5052898;28;20048;-75
2022/08/06 12:32:34;;;;;;;3.58;2.10;;;19.20;95.60;;;;;;5049563;28;19955;-71
2022/08/06 12:35:08;;;;;;;2.72;2.33;;;19.30;97.00;;;;;;5052576;28;20044;-75
2022/08/06 12:37:40;;;;;;;2.78;2.42;;;19.40;97.60;;;;;;5036169;28;20555;-71
2022/08/06 12:40:26;;;;;;;3.97;2.42;;;19.40;96.30;;;;;;5052258;28;20539;-75
2022/08/06 12:42:53;;;;;;;3.83;2.20;;;19.60;95.30;;;;;;5036118;28;20037;-74
2022/08/06 12:45:23;;;;;;;3.20;2.40;;;19.60;96.70;;;;;;5051636;28;20060;-72
2022/08/06 12:48:08;;;;;;;3.38;2.35;;;19.60;96.70;;;;;;5034706;28;20111;-71
2022/08/06 12:50:36;;;;;;;3.10;2.50;;;19.50;96.00;;;;;;5052336;28;20148;-72
2022/08/06 12:53:06;;;;;;;4.30;2.30;;;19.60;97.50;;;;;;5014232;28;20052;-73
2022/08/06 12:55:42;;;;;;;2.72;2.20;;;19.50;94.70;;;;;;5043767;28;20045;-70
2022/08/06 12:58:09;;;;;;;3.00;2.50;;;19.40;95.50;;;;;;5022389;28;20045;-71
2022/08/06 13:00:36;;;;;;;3.90;2.70;;;19.50;96.00;;;;;;5039355;28;20156;-70
2022/08/06 13:03:03;;;;;;;3.15;2.40;;;19.70;96.80;;;;;;5038278;28;20074;-71
2022/08/06 13:05:29;;;;;;;4.72;2.60;;;19.80;95.80;;;;;;5051646;28;20033;-73
2022/08/06 13:07:56;;;;;;;3.97;2.60;;;19.80;96.60;;;;;;5026242;28;20056;-71
2022/08/06 13:10:22;;;;;;;3.58;2.85;;;19.80;96.20;;;;;;5031195;28;20067;-73